Time;durP1;ratioP1;P1;durP2;ratioP2;P2;SDS_P1;SDS_P2;PMS_P1;PMS_P2;Temp;Humidity;BMP_temperature;BMP_pressure;BME280_temperature;BME280_humidity;BME280_pressure;Samples;Min_cycle;Max_cycle;Signal;HPM_P1;HPM_P2
2021/12/19 00:00:23;;;;;;;7.32;5.60;;;;;;;;;;5114393;28;20438;-64
2021/12/19 00:03:06;;;;;;;6.00;5.13;;;;;;;;;;5113174;28;20043;-63
2021/12/19 00:08:46;;;;;;;6.25;5.20;;;;;;;;;;5114420;28;20414;-64
2021/12/19 00:11:12;;;;;;;6.60;5.57;;;;;;;;;;5113411;28;20478;-63
2021/12/19 00:13:40;;;;;;;6.45;5.25;;;;;;;;;;5114619;28;20043;-63
2021/12/19 00:16:06;;;;;;;7.95;5.50;;;;;;;;;;5114047;28;20054;-63
2021/12/19 00:18:33;;;;;;;7.55;5.90;;;;;;;;;;5113489;27;20048;-63
2021/12/19 00:21:00;;;;;;;8.02;6.13;;;;;;;;;;5113836;28;20055;-64
2021/12/19 00:23:27;;;;;;;7.75;5.50;;;;;;;;;;5113354;28;20047;-64
2021/12/19 00:25:53;;;;;;;6.25;5.25;;;;;;;;;;5113803;28;20054;-64
2021/12/19 00:28:20;;;;;;;7.85;6.00;;;;;;;;;;5114252;28;20116;-63
2021/12/19 00:30:46;;;;;;;7.43;5.90;;;;;;;;;;5112675;28;20662;-64
2021/12/19 00:33:12;;;;;;;6.93;5.97;;;;;;;;;;5114016;27;20116;-64
2021/12/19 00:35:38;;;;;;;9.50;6.07;;;;;;;;;;5113873;28;20039;-64
2021/12/19 00:38:06;;;;;;;11.35;6.55;;;;;;;;;;5112718;28;20534;-64
2021/12/19 00:40:33;;;;;;;8.23;6.65;;;;;;;;;;5113779;28;20055;-64
2021/12/19 00:43:05;;;;;;;10.77;6.68;;;;;;;;;;5113608;28;20138;-64
2021/12/19 00:45:34;;;;;;;8.98;6.72;;;;;;;;;;5112817;28;20067;-64
2021/12/19 00:48:00;;;;;;;9.52;7.00;;;;;;;;;;5113266;28;20052;-64
2021/12/19 00:50:26;;;;;;;9.45;7.10;;;;;;;;;;5113574;28;20047;-64
2021/12/19 00:52:53;;;;;;;10.55;7.65;;;;;;;;;;5112527;28;20048;-64
2021/12/19 00:55:21;;;;;;;9.02;7.28;;;;;;;;;;5113561;28;20043;-64
2021/12/19 00:57:48;;;;;;;11.98;8.63;;;;;;;;;;5112993;28;20048;-64
2021/12/19 01:00:15;;;;;;;12.02;7.93;;;;;;;;;;5112589;28;20249;-64
2021/12/19 01:02:42;;;;;;;10.80;8.18;;;;;;;;;;5113386;28;20048;-64
2021/12/19 01:05:08;;;;;;;11.85;8.82;;;;;;;;;;5113169;28;20103;-64
2021/12/19 01:07:35;;;;;;;12.35;8.40;;;;;;;;;;5112353;28;20052;-64
2021/12/19 01:10:01;;;;;;;12.88;9.43;;;;;;;;;;5113244;28;20080;-64
2021/12/19 01:12:31;;;;;;;12.13;9.10;;;;;;;;;;5113217;27;20096;-64
2021/12/19 01:14:57;;;;;;;13.23;9.60;;;;;;;;;;5112207;28;20066;-64
2021/12/19 01:17:24;;;;;;;12.65;9.32;;;;;;;;;;5112817;28;20043;-64
2021/12/19 01:19:50;;;;;;;14.50;8.95;;;;;;;;;;5111414;28;20043;-63
2021/12/19 01:22:17;;;;;;;13.65;9.38;;;;;;;;;;5112788;28;20051;-63
2021/12/19 01:24:44;;;;;;;12.45;9.38;;;;;;;;;;5112915;28;20120;-63
2021/12/19 01:27:10;;;;;;;13.93;9.30;;;;;;;;;;5112222;28;20044;-64
2021/12/19 01:29:38;;;;;;;13.05;8.95;;;;;;;;;;5112906;28;20107;-63
2021/12/19 01:32:05;;;;;;;11.68;8.63;;;;;;;;;;5112389;28;20043;-64
2021/12/19 01:34:31;;;;;;;12.60;9.77;;;;;;;;;;5112002;28;20039;-64
2021/12/19 01:36:57;;;;;;;12.90;9.65;;;;;;;;;;5112425;28;20047;-64
2021/12/19 01:39:23;;;;;;;12.95;9.40;;;;;;;;;;5112788;28;20044;-64
2021/12/19 01:41:51;;;;;;;12.88;9.23;;;;;;;;;;5111798;28;20100;-64
2021/12/19 01:44:17;;;;;;;13.40;9.27;;;;;;;;;;5112412;28;20044;-64
2021/12/19 01:46:46;;;;;;;13.07;9.93;;;;;;;;;;5112221;28;20490;-64
2021/12/19 01:49:12;;;;;;;12.73;9.38;;;;;;;;;;5111615;28;20050;-63
2021/12/19 01:51:39;;;;;;;14.15;9.80;;;;;;;;;;5112624;27;20044;-63
2021/12/19 01:54:05;;;;;;;14.50;9.70;;;;;;;;;;5111762;28;20044;-63
2021/12/19 01:56:32;;;;;;;13.18;8.93;;;;;;;;;;5111337;28;20555;-63
2021/12/19 01:58:58;;;;;;;13.90;10.15;;;;;;;;;;5111886;28;20048;-63
2021/12/19 02:01:24;;;;;;;12.93;9.45;;;;;;;;;;5112254;28;20444;-64
2021/12/19 02:03:52;;;;;;;14.13;10.05;;;;;;;;;;5111131;28;20044;-64
2021/12/19 02:06:18;;;;;;;14.13;9.80;;;;;;;;;;5111998;28;20048;-64
2021/12/19 02:08:45;;;;;;;14.55;9.82;;;;;;;;;;5111893;28;20101;-64
2021/12/19 02:11:13;;;;;;;12.35;9.25;;;;;;;;;;5111471;28;20044;-64
2021/12/19 02:13:39;;;;;;;13.10;9.57;;;;;;;;;;5111990;28;20097;-63
2021/12/19 02:16:06;;;;;;;13.63;9.45;;;;;;;;;;5111056;28;20104;-63
2021/12/19 02:18:32;;;;;;;14.70;10.30;;;;;;;;;;5111933;28;20551;-63
2021/12/19 02:21:00;;;;;;;13.32;10.07;;;;;;;;;;5111804;28;20039;-63
2021/12/19 02:23:27;;;;;;;12.18;8.80;;;;;;;;;;5111174;28;20043;-63
2021/12/19 02:25:54;;;;;;;12.73;9.45;;;;;;;;;;5111617;28;20104;-63
2021/12/19 02:28:21;;;;;;;12.82;9.52;;;;;;;;;;5111855;28;20048;-63
2021/12/19 02:30:47;;;;;;;14.00;10.02;;;;;;;;;;5110572;28;20440;-64
2021/12/19 02:33:17;;;;;;;13.27;9.35;;;;;;;;;;5111866;27;20051;-63
2021/12/19 02:35:49;;;;;;;11.98;9.25;;;;;;;;;;5111625;28;20044;-63
2021/12/19 02:39:07;;;;;;;13.32;9.50;;;;;;;;;;5110877;28;20055;-63
2021/12/19 02:49:30;;;;;;;11.23;8.68;;;;;;;;;;5111415;28;20046;-63
2021/12/19 02:51:56;;;;;;;11.52;8.77;;;;;;;;;;5110762;28;20105;-64
2021/12/19 02:54:24;;;;;;;11.75;8.00;;;;;;;;;;5111656;28;20074;-63
2021/12/19 02:56:51;;;;;;;10.18;8.10;;;;;;;;;;5111166;28;20055;-63
2021/12/19 02:59:18;;;;;;;10.82;8.00;;;;;;;;;;5110641;28;20050;-63
2021/12/19 03:01:45;;;;;;;10.73;8.02;;;;;;;;;;5111149;28;20048;-63
2021/12/19 03:04:12;;;;;;;11.48;8.52;;;;;;;;;;5111161;28;20075;-64
2021/12/19 03:06:43;;;;;;;9.57;7.35;;;;;;;;;;5112260;28;20047;-64
2021/12/19 03:09:10;;;;;;;9.38;7.40;;;;;;;;;;5115517;28;20543;-64
2021/12/19 03:19:54;;;;;;;9.20;6.97;;;;;;;;;;5114428;28;20497;-63
2021/12/19 03:22:20;;;;;;;9.50;6.72;;;;;;;;;;5115271;28;20498;-63
2021/12/19 03:24:46;;;;;;;9.25;7.30;;;;;;;;;;5114910;28;20052;-63
2021/12/19 03:27:14;;;;;;;8.80;6.68;;;;;;;;;;5114597;28;20097;-63
2021/12/19 03:29:40;;;;;;;9.13;7.00;;;;;;;;;;5115435;28;20078;-63
2021/12/19 03:32:06;;;;;;;9.18;7.00;;;;;;;;;;5114906;28;20048;-63
2021/12/19 03:34:34;;;;;;;8.88;6.88;;;;;;;;;;5114363;28;20044;-64
2021/12/19 03:37:00;;;;;;;9.27;6.97;;;;;;;;;;5114729;28;20044;-64
2021/12/19 03:39:34;;;;;;;9.55;6.88;;;;;;;;;;5114758;28;20447;-64
2021/12/19 03:42:00;;;;;;;8.98;6.70;;;;;;;;;;5113915;28;20483;-64
2021/12/19 03:44:28;;;;;;;10.10;6.97;;;;;;;;;;5114907;28;20088;-64
2021/12/19 03:46:54;;;;;;;8.90;6.95;;;;;;;;;;5114587;28;20113;-64
2021/12/19 03:49:20;;;;;;;8.75;6.97;;;;;;;;;;5113919;28;20683;-63
2021/12/19 03:51:48;;;;;;;9.77;6.85;;;;;;;;;;5114436;28;20040;-63
2021/12/19 03:54:14;;;;;;;8.48;6.93;;;;;;;;;;5114621;28;20055;-63
2021/12/19 03:56:40;;;;;;;9.32;6.95;;;;;;;;;;5114080;28;20078;-64
2021/12/19 03:59:06;;;;;;;10.77;7.53;;;;;;;;;;5114419;28;20051;-64
2021/12/19 04:01:34;;;;;;;9.70;7.00;;;;;;;;;;5113888;28;20100;-63
2021/12/19 04:04:01;;;;;;;11.43;8.13;;;;;;;;;;5114032;28;20100;-64
2021/12/19 04:06:27;;;;;;;10.85;8.15;;;;;;;;;;5113204;28;20039;-64
2021/12/19 04:08:56;;;;;;;10.43;7.72;;;;;;;;;;5112280;28;20051;-63
2021/12/19 04:11:24;;;;;;;10.85;7.65;;;;;;;;;;5113013;28;20573;-62
2021/12/19 04:13:50;;;;;;;10.77;8.00;;;;;;;;;;5113133;28;20040;-62
2021/12/19 04:16:17;;;;;;;11.68;8.25;;;;;;;;;;5112370;28;20128;-62
2021/12/19 04:18:44;;;;;;;12.88;8.75;;;;;;;;;;5112466;28;20047;-62
2021/12/19 04:21:10;;;;;;;13.15;8.90;;;;;;;;;;5112878;28;20047;-61
2021/12/19 04:23:36;;;;;;;11.93;9.48;;;;;;;;;;5112367;28;20126;-60
2021/12/19 04:26:03;;;;;;;11.73;8.68;;;;;;;;;;5112883;28;20055;-61
2021/12/19 04:28:29;;;;;;;12.50;9.48;;;;;;;;;;5113023;28;20077;-61
2021/12/19 04:30:55;;;;;;;12.00;9.35;;;;;;;;;;5111934;28;20048;-62
2021/12/19 04:33:23;;;;;;;12.38;9.48;;;;;;;;;;5112786;28;20547;-62
2021/12/19 04:35:50;;;;;;;12.93;9.10;;;;;;;;;;5112419;28;20043;-62
2021/12/19 04:41:41;;;;;;;13.25;9.25;;;;;;;;;;5112534;28;20059;-62
2021/12/19 04:55:26;;;;;;;11.60;9.20;;;;;;;;;;5029587;28;20056;-62
2021/12/19 04:57:58;;;;;;;12.45;9.02;;;;;;;;;;5101322;28;20139;-62
2021/12/19 05:00:34;;;;;;;9.73;7.63;;;;;;;;;;5112384;28;20100;-61
2021/12/19 05:03:05;;;;;;;11.88;8.77;;;;;;;;;;5112053;28;20517;-61
2021/12/19 05:05:52;;;;;;;9.95;7.40;;;;;;;;;;5077181;28;995825;-61
2021/12/19 05:14:08;;;;;;;11.52;7.75;;;;;;;;;;5070463;28;20066;-61
2021/12/19 05:16:36;;;;;;;9.20;7.20;;;;;;;;;;5113321;28;20040;-61
2021/12/19 05:19:07;;;;;;;9.70;7.28;;;;;;;;;;5112044;28;20051;-61
2021/12/19 05:21:36;;;;;;;9.05;6.95;;;;;;;;;;5113738;28;20074;-61
2021/12/19 05:24:20;;;;;;;8.07;6.32;;;;;;;;;;5112961;28;20101;-61
2021/12/19 05:26:47;;;;;;;9.52;6.88;;;;;;;;;;5111945;28;20126;-62
2021/12/19 05:29:13;;;;;;;6.95;5.68;;;;;;;;;;5112007;28;20504;-61
2021/12/19 05:31:39;;;;;;;7.18;5.72;;;;;;;;;;5113093;28;20039;-62
2021/12/19 05:34:06;;;;;;;7.55;5.55;;;;;;;;;;5111548;28;20040;-62
2021/12/19 05:47:29;;;;;;;5.25;4.28;;;;;;;;;;5111857;28;20058;-61
2021/12/19 05:49:55;;;;;;;5.55;4.03;;;;;;;;;;5112350;28;20469;-61
2021/12/19 05:52:21;;;;;;;4.50;3.63;;;;;;;;;;5112325;28;20551;-60
2021/12/19 05:54:49;;;;;;;5.50;3.67;;;;;;;;;;5111333;28;20097;-61
2021/12/19 05:57:15;;;;;;;3.90;3.35;;;;;;;;;;5112220;28;20047;-60
2021/12/19 05:59:41;;;;;;;3.85;3.17;;;;;;;;;;5112265;28;20050;-60
2021/12/19 06:02:08;;;;;;;4.85;3.25;;;;;;;;;;5111565;28;20554;-60
2021/12/19 06:04:34;;;;;;;4.43;3.15;;;;;;;;;;5112013;28;20093;-61
2021/12/19 06:07:00;;;;;;;3.80;3.10;;;;;;;;;;5112080;28;20044;-61
2021/12/19 06:09:27;;;;;;;3.80;3.10;;;;;;;;;;5111514;28;20562;-61
2021/12/19 06:11:54;;;;;;;4.68;2.90;;;;;;;;;;5112000;28;20067;-60
2021/12/19 06:14:20;;;;;;;3.05;2.42;;;;;;;;;;5112365;28;20044;-61
2021/12/19 06:16:46;;;;;;;3.00;2.35;;;;;;;;;;5111091;28;20047;-61
2021/12/19 06:19:13;;;;;;;3.10;2.58;;;;;;;;;;5111922;28;20050;-60
2021/12/19 06:21:39;;;;;;;4.05;2.40;;;;;;;;;;5112033;28;20132;-60
2021/12/19 06:24:05;;;;;;;4.35;2.97;;;;;;;;;;5110747;28;20043;-60
2021/12/19 06:26:35;;;;;;;2.70;2.20;;;;;;;;;;5112079;28;20043;-60
2021/12/19 06:29:03;;;;;;;2.70;2.30;;;;;;;;;;5111694;28;20048;-61
2021/12/19 06:31:29;;;;;;;3.25;2.28;;;;;;;;;;5111822;28;20092;-61
2021/12/19 06:33:55;;;;;;;2.92;1.98;;;;;;;;;;5111524;28;20043;-61
2021/12/19 06:36:21;;;;;;;2.47;1.90;;;;;;;;;;5110992;28;20047;-61
2021/12/19 06:38:48;;;;;;;3.50;2.03;;;;;;;;;;5111329;28;20101;-61
2021/12/19 06:41:14;;;;;;;2.65;1.73;;;;;;;;;;5112257;28;20047;-61
2021/12/19 06:43:40;;;;;;;3.55;1.90;;;;;;;;;;5112280;28;20040;-61
2021/12/19 06:46:08;;;;;;;3.80;1.85;;;;;;;;;;5111301;28;20448;-61
2021/12/19 06:48:35;;;;;;;3.08;1.70;;;;;;;;;;5111852;28;20071;-61
2021/12/19 06:51:01;;;;;;;2.55;1.42;;;;;;;;;;5110627;28;20832;-61
2021/12/19 06:53:27;;;;;;;2.03;1.52;;;;;;;;;;5111840;28;20051;-61
2021/12/19 06:55:53;;;;;;;2.75;1.65;;;;;;;;;;5111453;28;20036;-62
2021/12/19 06:58:19;;;;;;;2.17;1.60;;;;;;;;;;5110565;28;20547;-62
2021/12/19 07:00:46;;;;;;;1.73;1.30;;;;;;;;;;5111305;28;20043;-61
2021/12/19 07:03:15;;;;;;;3.28;1.63;;;;;;;;;;5111678;28;20047;-61
2021/12/19 07:05:41;;;;;;;3.00;1.35;;;;;;;;;;5110550;28;20043;-62
2021/12/19 07:08:07;;;;;;;2.35;1.40;;;;;;;;;;5111878;28;20048;-62
2021/12/19 07:10:34;;;;;;;2.28;1.40;;;;;;;;;;5111812;28;20044;-62
2021/12/19 07:13:00;;;;;;;1.92;1.30;;;;;;;;;;5110406;28;20040;-62
2021/12/19 07:15:27;;;;;;;1.95;1.30;;;;;;;;;;5111503;28;20040;-62
2021/12/19 07:17:53;;;;;;;1.70;1.17;;;;;;;;;;5111029;28;20047;-62
2021/12/19 07:20:21;;;;;;;1.92;1.30;;;;;;;;;;5110498;28;20077;-62
2021/12/19 07:22:47;;;;;;;1.38;1.20;;;;;;;;;;5111254;28;20048;-62
2021/12/19 07:25:13;;;;;;;2.47;1.38;;;;;;;;;;5111356;28;20101;-62
2021/12/19 07:27:39;;;;;;;1.98;1.42;;;;;;;;;;5110826;28;20095;-61
2021/12/19 07:30:06;;;;;;;1.55;1.10;;;;;;;;;;5110884;28;20069;-61
2021/12/19 07:32:34;;;;;;;2.03;1.35;;;;;;;;;;5110518;28;20043;-61
2021/12/19 07:35:00;;;;;;;2.08;1.10;;;;;;;;;;5111001;28;20039;-61
2021/12/19 07:37:28;;;;;;;1.63;1.20;;;;;;;;;;5111162;28;20096;-62
2021/12/19 07:39:58;;;;;;;1.95;1.40;;;;;;;;;;5110135;28;20382;-62
2021/12/19 07:42:25;;;;;;;1.80;1.35;;;;;;;;;;5111205;28;20135;-62
2021/12/19 07:44:51;;;;;;;1.98;1.30;;;;;;;;;;5111185;28;20044;-61
2021/12/19 07:47:17;;;;;;;1.67;1.20;;;;;;;;;;5110432;28;20555;-62
2021/12/19 07:49:44;;;;;;;1.83;1.23;;;;;;;;;;5110885;28;20051;-61
2021/12/19 07:52:10;;;;;;;1.45;1.05;;;;;;;;;;5111439;28;20052;-61
2021/12/19 07:54:37;;;;;;;2.00;1.30;;;;;;;;;;5114492;28;20044;-61
2021/12/19 07:57:04;;;;;;;1.45;1.10;;;;;;;;;;5114446;28;20478;-62
2021/12/19 07:59:30;;;;;;;2.17;1.30;;;;;;;;;;5115229;28;20048;-61
2021/12/19 08:01:57;;;;;;;1.60;1.40;;;;;;;;;;5113575;28;20043;-61
2021/12/19 08:04:23;;;;;;;1.40;1.17;;;;;;;;;;5114814;28;20071;-61
2021/12/19 08:06:49;;;;;;;1.75;1.00;;;;;;;;;;5114506;28;20088;-61
2021/12/19 08:09:23;;;;;;;1.60;1.23;;;;;;;;;;5113219;28;20481;-63
2021/12/19 08:11:51;;;;;;;1.50;1.30;;;;;;;;;;5113930;28;20391;-63
2021/12/19 08:14:18;;;;;;;1.60;1.30;;;;;;;;;;5114670;28;20048;-63
2021/12/19 08:16:46;;;;;;;1.77;1.23;;;;;;;;;;5113263;28;20052;-63
2021/12/19 08:19:12;;;;;;;1.50;1.20;;;;;;;;;;5114284;28;20043;-63
2021/12/19 08:21:38;;;;;;;1.67;1.40;;;;;;;;;;5113722;28;20096;-63
2021/12/19 08:24:10;;;;;;;1.75;1.20;;;;;;;;;;5114154;28;20044;-64
2021/12/19 08:26:36;;;;;;;1.10;0.85;;;;;;;;;;5114257;28;20042;-62
2021/12/19 08:29:04;;;;;;;2.58;1.27;;;;;;;;;;5113581;28;20146;-63
2021/12/19 08:31:30;;;;;;;1.95;1.42;;;;;;;;;;5113884;28;20474;-63
2021/12/19 08:33:58;;;;;;;1.92;1.42;;;;;;;;;;5113920;28;20460;-63
2021/12/19 08:36:24;;;;;;;2.55;1.40;;;;;;;;;;5113779;28;20052;-63
2021/12/19 08:38:50;;;;;;;1.85;1.23;;;;;;;;;;5113608;28;20096;-63
2021/12/19 08:41:17;;;;;;;1.42;1.33;;;;;;;;;;5114254;28;20097;-64
2021/12/19 08:43:43;;;;;;;1.67;1.33;;;;;;;;;;5112762;28;20044;-62
2021/12/19 08:46:11;;;;;;;1.40;1.10;;;;;;;;;;5114335;28;20100;-62
2021/12/19 08:48:38;;;;;;;1.63;1.40;;;;;;;;;;5113807;28;20112;-62
2021/12/19 08:51:04;;;;;;;4.03;1.30;;;;;;;;;;5113030;28;20100;-62
2021/12/19 08:53:30;;;;;;;3.83;1.30;;;;;;;;;;5106319;28;20056;-63
2021/12/19 08:55:57;;;;;;;2.15;1.30;;;;;;;;;;5093119;28;20044;-62
2021/12/19 08:58:23;;;;;;;2.30;1.30;;;;;;;;;;5095196;28;20053;-64
2021/12/19 09:00:49;;;;;;;2.13;1.48;;;;;;;;;;5113482;28;20085;-65
2021/12/19 09:03:17;;;;;;;2.55;1.40;;;;;;;;;;5113224;28;20077;-65
2021/12/19 09:05:43;;;;;;;3.08;1.20;;;;;;;;;;5111656;28;20044;-64
2021/12/19 09:08:10;;;;;;;2.38;1.55;;;;;;;;;;5113711;28;20047;-63
2021/12/19 09:10:36;;;;;;;1.60;1.30;;;;;;;;;;5113490;28;20051;-62
2021/12/19 09:13:02;;;;;;;1.73;1.33;;;;;;;;;;5112562;28;20048;-64
2021/12/19 09:15:28;;;;;;;1.63;1.48;;;;;;;;;;5113573;28;20089;-64
2021/12/19 09:17:55;;;;;;;2.72;1.60;;;;;;;;;;5112223;28;20104;-64
2021/12/19 09:20:22;;;;;;;2.55;1.45;;;;;;;;;;5113464;28;20551;-64
2021/12/19 09:22:48;;;;;;;3.13;1.95;;;;;;;;;;5112860;28;20113;-64
2021/12/19 09:25:15;;;;;;;2.65;1.77;;;;;;;;;;5112474;28;20051;-64
2021/12/19 09:27:41;;;;;;;3.42;1.90;;;;;;;;;;5113179;28;20055;-63
2021/12/19 09:30:08;;;;;;;3.33;1.95;;;;;;;;;;5113026;28;20473;-63
2021/12/19 09:32:34;;;;;;;2.15;1.42;;;;;;;;;;5112465;28;20048;-62
2021/12/19 09:35:00;;;;;;;3.58;1.75;;;;;;;;;;5112819;28;20043;-62
2021/12/19 09:37:29;;;;;;;4.05;1.90;;;;;;;;;;5113354;28;20044;-62
2021/12/19 09:39:55;;;;;;;2.58;1.80;;;;;;;;;;5111774;28;20083;-62
2021/12/19 09:42:32;;;;;;;2.00;1.70;;;;;;;;;;5112825;28;20054;-63
2021/12/19 09:45:00;;;;;;;2.30;2.00;;;;;;;;;;5112470;28;20043;-62
2021/12/19 09:47:26;;;;;;;1.95;1.75;;;;;;;;;;5112142;28;20055;-62
2021/12/19 09:49:53;;;;;;;3.03;1.70;;;;;;;;;;5112121;28;20044;-63
2021/12/19 09:52:19;;;;;;;2.90;1.70;;;;;;;;;;5112903;28;20048;-63
2021/12/19 09:54:47;;;;;;;2.47;1.75;;;;;;;;;;5111695;28;20040;-64
2021/12/19 09:57:13;;;;;;;2.63;1.55;;;;;;;;;;5112310;28;20043;-62
2021/12/19 09:59:39;;;;;;;2.75;1.70;;;;;;;;;;5112097;28;20096;-62
2021/12/19 10:02:05;;;;;;;2.80;2.00;;;;;;;;;;5111116;28;20047;-66
2021/12/19 10:04:34;;;;;;;4.38;1.95;;;;;;;;;;5112246;28;20105;-66
2021/12/19 10:07:05;;;;;;;3.67;1.88;;;;;;;;;;5109077;28;20134;-66
2021/12/19 10:09:31;;;;;;;4.40;2.15;;;;;;;;;;5112244;28;20055;-66
2021/12/19 10:12:22;;;;;;;3.47;2.33;;;;;;;;;;5112074;28;20089;-65
2021/12/19 10:14:49;;;;;;;4.07;2.50;;;;;;;;;;5110980;28;20040;-66
2021/12/19 10:17:16;;;;;;;4.47;2.30;;;;;;;;;;5112023;28;20092;-62
2021/12/19 10:19:43;;;;;;;4.35;2.83;;;;;;;;;;5111654;28;20554;-65
2021/12/19 10:22:23;;;;;;;3.40;2.58;;;;;;;;;;5111516;28;20040;-66
2021/12/19 10:24:49;;;;;;;3.00;2.50;;;;;;;;;;5111928;28;20043;-66
2021/12/19 10:27:30;;;;;;;4.18;3.05;;;;;;;;;;5111739;28;20059;-66
2021/12/19 10:29:58;;;;;;;3.25;2.63;;;;;;;;;;5110852;28;20062;-64
2021/12/19 10:32:25;;;;;;;4.05;2.58;;;;;;;;;;5111969;28;20108;-61
2021/12/19 10:34:51;;;;;;;5.25;2.95;;;;;;;;;;5111419;28;20047;-61
2021/12/19 10:37:31;;;;;;;3.55;2.90;;;;;;;;;;5110658;28;20073;-61
2021/12/19 10:39:59;;;;;;;5.07;3.25;;;;;;;;;;5107495;28;20466;-62
2021/12/19 10:42:33;;;;;;;6.38;3.28;;;;;;;;;;5110521;28;20052;-61
2021/12/19 10:47:44;;;;;;;4.80;3.42;;;;;;;;;;5110986;28;20043;-61
2021/12/19 10:50:10;;;;;;;6.25;3.58;;;;;;;;;;5111299;28;20108;-62
2021/12/19 10:52:38;;;;;;;5.05;3.03;;;;;;;;;;5111440;28;20047;-64
2021/12/19 10:55:05;;;;;;;7.95;3.70;;;;;;;;;;5111346;28;20513;-64
2021/12/19 10:57:33;;;;;;;6.95;4.30;;;;;;;;;;5111210;28;20044;-65
2021/12/19 11:00:00;;;;;;;6.85;3.90;;;;;;;;;;5111068;28;20493;-64
2021/12/19 11:02:40;;;;;;;7.68;4.65;;;;;;;;;;5111538;28;20105;-62
2021/12/19 11:05:06;;;;;;;7.15;4.35;;;;;;;;;;5110403;28;20055;-62
2021/12/19 11:07:33;;;;;;;6.65;4.45;;;;;;;;;;5111458;28;20501;-61
2021/12/19 11:10:00;;;;;;;8.50;4.50;;;;;;;;;;5111516;28;20040;-61
2021/12/19 11:12:26;;;;;;;6.97;4.45;;;;;;;;;;5110817;28;20043;-61
2021/12/19 11:14:52;;;;;;;7.18;4.57;;;;;;;;;;5111387;28;20191;-61
2021/12/19 11:17:21;;;;;;;9.20;5.60;;;;;;;;;;5111477;28;20055;-61
2021/12/19 11:19:48;;;;;;;7.65;4.88;;;;;;;;;;5110318;28;20055;-61
2021/12/19 11:22:16;;;;;;;8.45;4.53;;;;;;;;;;5111707;28;20089;-61
2021/12/19 11:24:43;;;;;;;8.60;5.32;;;;;;;;;;5110318;28;20406;-61
2021/12/19 11:27:09;;;;;;;7.75;5.40;;;;;;;;;;5111827;28;20126;-61
2021/12/19 11:29:36;;;;;;;7.63;5.03;;;;;;;;;;5115575;28;20443;-61
2021/12/19 11:32:06;;;;;;;10.40;5.43;;;;;;;;;;5114209;28;21023;-61
2021/12/19 11:34:41;;;;;;;10.95;5.60;;;;;;;;;;5115405;28;20490;-61
2021/12/19 11:37:10;;;;;;;13.30;6.03;;;;;;;;;;5115285;28;20505;-61
2021/12/19 11:39:37;;;;;;;11.98;5.70;;;;;;;;;;5114575;28;20100;-61
2021/12/19 11:42:09;;;;;;;9.40;5.53;;;;;;;;;;5114978;28;20043;-61
2021/12/19 11:44:38;;;;;;;8.27;5.35;;;;;;;;;;5115196;28;20047;-61
2021/12/19 11:47:10;;;;;;;7.82;4.82;;;;;;;;;;5113916;28;20039;-61
2021/12/19 11:49:38;;;;;;;10.57;5.57;;;;;;;;;;5114962;28;20490;-61
2021/12/19 11:52:23;;;;;;;8.93;5.25;;;;;;;;;;5114785;28;20058;-61
2021/12/19 11:55:17;;;;;;;8.48;5.45;;;;;;;;;;5113956;28;20044;-62
2021/12/19 11:57:44;;;;;;;9.38;4.75;;;;;;;;;;5114773;28;20101;-61
2021/12/19 12:00:28;;;;;;;9.13;5.57;;;;;;;;;;5113874;28;20543;-61
2021/12/19 12:03:10;;;;;;;8.50;5.05;;;;;;;;;;5114518;28;20069;-61
2021/12/19 12:05:37;;;;;;;7.43;5.03;;;;;;;;;;5114627;28;20047;-61
2021/12/19 12:08:13;;;;;;;7.97;4.65;;;;;;;;;;5113753;28;20085;-61
2021/12/19 12:11:01;;;;;;;8.25;5.18;;;;;;;;;;5114668;28;20040;-61
2021/12/19 12:13:28;;;;;;;7.95;5.40;;;;;;;;;;5114292;28;20036;-61
2021/12/19 12:16:02;;;;;;;7.40;4.85;;;;;;;;;;5113538;28;20541;-62
2021/12/19 12:18:29;;;;;;;7.68;4.55;;;;;;;;;;5114533;28;20050;-61
2021/12/19 12:20:57;;;;;;;7.43;4.63;;;;;;;;;;5113332;28;20543;-61
2021/12/19 12:23:26;;;;;;;9.30;4.82;;;;;;;;;;5114408;28;20127;-61
2021/12/19 12:25:52;;;;;;;10.05;4.70;;;;;;;;;;5114172;28;20044;-61
2021/12/19 12:28:19;;;;;;;7.38;4.75;;;;;;;;;;5113467;28;20039;-61
2021/12/19 12:30:47;;;;;;;6.55;4.53;;;;;;;;;;5113644;28;20443;-61
2021/12/19 12:33:15;;;;;;;5.35;4.45;;;;;;;;;;5114186;28;20478;-61
2021/12/19 12:35:42;;;;;;;8.60;5.28;;;;;;;;;;5113454;28;20047;-62
2021/12/19 12:38:10;;;;;;;7.55;5.13;;;;;;;;;;5113927;28;20047;-61
2021/12/19 12:40:47;;;;;;;8.15;5.03;;;;;;;;;;5113892;28;20051;-61
2021/12/19 12:43:15;;;;;;;7.80;4.95;;;;;;;;;;5113167;28;20490;-61
2021/12/19 12:46:02;;;;;;;8.48;4.53;;;;;;;;;;5114005;28;20048;-61
2021/12/19 12:48:30;;;;;;;6.97;4.50;;;;;;;;;;5107188;28;20092;-62
2021/12/19 12:50:56;;;;;;;6.68;4.43;;;;;;;;;;5112774;28;20051;-61
2021/12/19 12:53:32;;;;;;;7.03;4.35;;;;;;;;;;5114004;28;20044;-62
2021/12/19 12:56:09;;;;;;;8.45;4.93;;;;;;;;;;5113079;28;20531;-61
2021/12/19 12:58:36;;;;;;;6.75;4.82;;;;;;;;;;5113650;28;20488;-61
2021/12/19 13:01:12;;;;;;;8.80;4.82;;;;;;;;;;5113295;28;20051;-61
2021/12/19 13:03:38;;;;;;;;;;;;;;;;;;5113267;28;20074;-61
2021/12/19 13:06:04;;;;;;;9.02;4.50;;;;;;;;;;5113533;28;19920;-61
2021/12/19 13:08:32;;;;;;;8.32;4.90;;;;;;;;;;5113769;28;20044;-61
2021/12/19 13:10:59;;;;;;;7.97;4.25;;;;;;;;;;5112278;28;20450;-61
2021/12/19 13:13:25;;;;;;;7.70;4.00;;;;;;;;;;5113347;28;20048;-61
2021/12/19 13:15:52;;;;;;;6.95;3.83;;;;;;;;;;5113110;28;20075;-61
2021/12/19 13:18:19;;;;;;;7.82;4.30;;;;;;;;;;5112610;28;20052;-61
2021/12/19 13:20:45;;;;;;;8.30;4.00;;;;;;;;;;5112654;28;20044;-61
2021/12/19 13:23:11;;;;;;;8.23;4.10;;;;;;;;;;5113597;28;20047;-61
2021/12/19 13:25:40;;;;;;;7.22;3.92;;;;;;;;;;5112461;28;20047;-61
2021/12/19 13:28:07;;;;;;;7.60;4.10;;;;;;;;;;5112841;28;20505;-61
2021/12/19 13:30:34;;;;;;;5.38;4.22;;;;;;;;;;5112830;28;20066;-61
2021/12/19 13:33:03;;;;;;;7.00;4.60;;;;;;;;;;5112539;28;20093;-61
2021/12/19 13:35:30;;;;;;;8.57;5.38;;;;;;;;;;5112850;28;20383;-61
2021/12/19 13:37:58;;;;;;;5.45;4.03;;;;;;;;;;5112717;28;20043;-61
2021/12/19 13:40:25;;;;;;;5.55;4.38;;;;;;;;;;5112113;28;20191;-62
2021/12/19 13:42:54;;;;;;;6.07;4.18;;;;;;;;;;5112545;28;20044;-61
2021/12/19 13:45:25;;;;;;;6.80;4.22;;;;;;;;;;5112020;28;20387;-61
2021/12/19 13:47:51;;;;;;;6.60;4.35;;;;;;;;;;5112310;28;20101;-61
2021/12/19 13:50:18;;;;;;;8.13;4.15;;;;;;;;;;5111965;28;20555;-62
2021/12/19 13:52:44;;;;;;;7.95;4.05;;;;;;;;;;5111520;28;20069;-61
2021/12/19 13:55:14;;;;;;;7.78;4.32;;;;;;;;;;5112867;28;20040;-61
2021/12/19 13:57:40;;;;;;;9.45;4.43;;;;;;;;;;5112693;28;20378;-61
2021/12/19 14:00:10;;;;;;;6.82;4.03;;;;;;;;;;5111174;28;20047;-61
2021/12/19 14:02:36;;;;;;;7.65;4.45;;;;;;;;;;5112319;28;20039;-62
2021/12/19 14:05:03;;;;;;;6.40;4.03;;;;;;;;;;5112124;28;20059;-61
2021/12/19 14:07:29;;;;;;;6.65;4.05;;;;;;;;;;5111776;28;20089;-62
2021/12/19 14:10:02;;;;;;;7.93;4.40;;;;;;;;;;5111464;28;20092;-61
2021/12/19 14:12:53;;;;;;;5.70;4.15;;;;;;;;;;5112055;28;20043;-61
2021/12/19 14:15:21;;;;;;;7.03;3.80;;;;;;;;;;5111636;28;20050;-62
2021/12/19 14:17:49;;;;;;;5.38;3.58;;;;;;;;;;5111909;28;20040;-62
2021/12/19 14:20:15;;;;;;;6.22;3.63;;;;;;;;;;5112148;28;20126;-62
2021/12/19 14:22:41;;;;;;;5.78;3.90;;;;;;;;;;5111079;28;20039;-62
2021/12/19 14:25:08;;;;;;;7.43;4.03;;;;;;;;;;5111964;28;20432;-63
2021/12/19 14:27:36;;;;;;;5.60;3.75;;;;;;;;;;5111150;28;20047;-62
2021/12/19 14:30:04;;;;;;;7.32;3.17;;;;;;;;;;5111822;28;20051;-62
2021/12/19 14:32:33;;;;;;;5.10;3.55;;;;;;;;;;5091761;28;20044;-62
2021/12/19 14:35:01;;;;;;;5.53;3.45;;;;;;;;;;5090636;28;20039;-62
2021/12/19 14:37:30;;;;;;;4.07;3.15;;;;;;;;;;5091502;28;20044;-62
2021/12/19 14:39:57;;;;;;;5.00;3.72;;;;;;;;;;5091645;28;20051;-65
2021/12/19 14:42:29;;;;;;;5.65;3.88;;;;;;;;;;5090909;28;20044;-65
2021/12/19 14:44:55;;;;;;;5.57;3.60;;;;;;;;;;5091467;28;20043;-64
2021/12/19 14:47:36;;;;;;;5.35;3.35;;;;;;;;;;5110205;28;20563;-64
2021/12/19 14:50:09;;;;;;;5.68;3.58;;;;;;;;;;5111023;28;20047;-64
2021/12/19 14:52:35;;;;;;;4.53;3.15;;;;;;;;;;5111693;28;20070;-65
2021/12/19 14:55:08;;;;;;;6.93;3.97;;;;;;;;;;5111754;28;20047;-64
2021/12/19 14:57:34;;;;;;;7.70;3.60;;;;;;;;;;5110893;28;20109;-64
2021/12/19 15:00:00;;;;;;;4.05;3.22;;;;;;;;;;5111535;28;20047;-64
2021/12/19 15:02:26;;;;;;;4.90;3.25;;;;;;;;;;5114389;28;20108;-64
2021/12/19 15:04:54;;;;;;;4.82;3.13;;;;;;;;;;5114916;28;20060;-64
2021/12/19 15:07:24;;;;;;;5.10;3.05;;;;;;;;;;5116159;28;20379;-63
2021/12/19 15:09:50;;;;;;;7.55;3.60;;;;;;;;;;5114503;28;20044;-63
2021/12/19 15:12:16;;;;;;;7.38;3.58;;;;;;;;;;5116327;28;20051;-62
2021/12/19 15:14:43;;;;;;;7.40;3.45;;;;;;;;;;5115505;28;20448;-63
2021/12/19 15:17:09;;;;;;;5.97;3.70;;;;;;;;;;5115098;28;20045;-61
2021/12/19 15:19:35;;;;;;;7.30;3.70;;;;;;;;;;5115286;28;20047;-62
2021/12/19 15:22:03;;;;;;;12.38;4.30;;;;;;;;;;5115124;28;20472;-61
2021/12/19 15:24:29;;;;;;;8.38;4.45;;;;;;;;;;5114370;28;20478;-61
2021/12/19 15:26:55;;;;;;;8.93;4.15;;;;;;;;;;5115077;28;20047;-61
2021/12/19 15:29:21;;;;;;;9.88;4.18;;;;;;;;;;5115303;28;20044;-61
2021/12/19 15:31:50;;;;;;;10.45;4.57;;;;;;;;;;5114102;28;20448;-61
2021/12/19 15:34:16;;;;;;;10.15;4.85;;;;;;;;;;5115041;28;20051;-61
2021/12/19 15:36:42;;;;;;;11.13;4.63;;;;;;;;;;5114987;28;20109;-61
2021/12/19 15:39:10;;;;;;;14.20;5.00;;;;;;;;;;5114460;28;20044;-62